Tropical Cyclones
[Index]
Main Index Home Page Stock Weather Photos Extreme Storms Discussion Storm News and Storm Chasing Reports Tropical Cyclones / Hurricanes / Typhoons Weather Data and Links Wild Fires / Bushfires Weather Observation Techniques Weather Picture Catalogue Tornado Pictures and Reports Stock Video Footage and DVDs for sale
Season 1997-1998 Tropical Cyclone MARTIN Track Map
Season 1997-1998 Summaries: [BoM-AU] [JTWC-AU] [JTWC-SIO] [JTWC-SPAC] [JTWC-SH]
<<- Previous TC | JTWC 1997-1998 Season | Next TC ->>

click for intensity scale information  Lat/long Grid: Show Hide

 Date Labels: Show Hide

Joint Typhoon Warning Centre Cyclone Data

Name: MARTIN

28 Oct 1997 18:00 UTC to 04 Nov 1997 18:00 UTC

    date/time    lat    long     hPa   cat  kts
1997-10-28 18    7.5   161.1W                 25          
1997-10-29 00    7.7   161.6W                 25          
1997-10-29 06    7.9   162.2W                 25          
1997-10-29 12    8.2   163.0W                 30          
1997-10-29 18    8.4   163.9W                 30          
1997-10-30 00    8.7   164.5W                 30          
1997-10-30 06    8.9   165.0W                 30          
1997-10-30 12    9.0   165.3W                 30          
1997-10-30 18    9.1   165.3W                 35          
1997-10-31 00    9.3   165.4W           1     40          
1997-10-31 06    9.7   165.5W           1     45          
1997-10-31 12   10.2   165.5W           1     50          
1997-10-31 18   10.6   165.3W           2     55          
1997-11-01 00   10.9   164.9W           2     60          
1997-11-01 06   11.1   164.3W           2     65          
1997-11-01 12   11.1   163.6W           2     70          
1997-11-01 18   11.0   162.9W           3     75          
1997-11-02 00   11.1   162.1W           3     75          
1997-11-02 06   11.3   161.2W           3     80          
1997-11-02 12   11.9   160.0W           3     85          
1997-11-02 18   12.8   158.7W           3     90          
1997-11-03 00   13.9   157.3W           3     95          
1997-11-03 06   15.1   155.8W           3     95          
1997-11-03 12   16.5   154.2W           4    100          
1997-11-03 18   18.0   152.5W           4    100          
1997-11-04 00   19.6   150.8W           3     90          
1997-11-04 06   21.2   149.2W           3     75          
1997-11-04 12   22.9   147.6W           1     50          
1997-11-04 18   24.7   145.8W                 30          
Winds are 1-min average.

Tropical cyclone tracks developed by Michael Bath using data from the Joint Typhoon Warning Centre Best Tracks and Google Maps.


[Australian Severe Weather index] [Copyright Notice] [Email Contacts] [Search This Site] [Privacy Policy]
Document: tropical_cyclone_martin.htm Updated: 18 September 2016